Time;durP1;ratioP1;P1;durP2;ratioP2;P2;SDS_P1;SDS_P2;PMS_P1;PMS_P2;Temp;Humidity;BMP_temperature;BMP_pressure;BME280_temperature;BME280_humidity;BME280_pressure;Samples;Min_cycle;Max_cycle;Signal;HPM_P1;HPM_P2
2024/04/10 00:00:03;;;;;;;;;0.00;0.00;;;;;23.70;40.20;102353.78;4937590;28;45367;-78
2024/04/10 00:02:28;;;;;;;;;0.33;0.00;;;;;23.88;40.03;102387.44;4937680;28;45349;-78
2024/04/10 00:04:55;;;;;;;;;0.33;0.33;;;;;23.88;40.33;102373.31;4936815;28;45917;-78
2024/04/10 00:07:20;;;;;;;;;1.00;0.00;;;;;23.78;40.48;102373.41;4937724;28;45437;-77
2024/04/10 00:09:45;;;;;;;;;2.00;1.00;;;;;23.66;40.45;102352.41;4937454;28;45365;-77
2024/04/10 00:12:11;;;;;;;;;0.00;0.00;;;;;23.90;40.11;102396.09;4937570;28;45288;-78
2024/04/10 00:14:37;;;;;;;;;0.00;0.00;;;;;23.82;40.32;102380.06;4937567;28;45386;-78
2024/04/10 00:17:02;;;;;;;;;1.67;0.00;;;;;23.87;40.02;102399.06;4937460;28;45289;-78
2024/04/10 00:19:28;;;;;;;;;1.00;0.00;;;;;23.90;40.08;102392.59;4937168;28;45369;-77
2024/04/10 00:21:56;;;;;;;;;1.00;0.33;;;;;23.88;39.95;102389.25;4937532;28;45212;-78
2024/04/10 00:24:22;;;;;;;;;1.33;0.00;;;;;23.87;39.90;102395.56;4937260;28;47029;-77
2024/04/10 00:26:51;;;;;;;;;0.00;0.00;;;;;23.73;40.00;102380.00;4937308;28;45450;-77
2024/04/10 00:29:16;;;;;;;;;0.00;0.00;;;;;23.79;39.77;102385.69;4937464;28;45288;-77
2024/04/10 00:31:42;;;;;;;;;0.33;0.00;;;;;23.79;40.26;102385.69;4937337;28;45255;-77
2024/04/10 00:34:08;;;;;;;;;1.00;0.00;;;;;23.88;39.97;102394.56;4936975;28;45455;-78
2024/04/10 00:36:33;;;;;;;;;2.00;0.00;;;;;23.89;39.87;102393.59;4937332;28;45368;-78
2024/04/10 00:38:59;;;;;;;;;0.00;0.00;;;;;23.88;39.98;102394.56;4937367;28;45226;-78
2024/04/10 00:41:24;;;;;;;;;0.67;0.00;;;;;23.88;40.27;102406.03;4937085;28;45161;-78
2024/04/10 00:43:49;;;;;;;;;0.00;0.00;;;;;23.82;39.75;102396.88;4937218;28;47317;-78
2024/04/10 00:46:20;;;;;;;;;0.00;0.00;;;;;23.87;39.98;102408.84;4939877;28;45217;-75
2024/04/10 00:48:47;;;;;;;;;1.00;0.00;;;;;23.88;39.83;102410.53;4940553;28;45920;-78
2024/04/10 00:51:20;;;;;;;;;0.00;0.00;;;;;23.87;39.88;102414.16;4940351;28;45406;-78
2024/04/10 00:53:47;;;;;;;;;0.00;0.00;;;;;23.86;40.17;102413.34;4940195;28;46122;-78
2024/04/10 00:56:13;;;;;;;;;0.33;0.00;;;;;23.85;39.78;102423.13;4940242;28;45288;-78
2024/04/10 00:58:40;;;;;;;;;0.00;0.00;;;;;23.86;40.00;102429.28;4940417;28;45309;-78
2024/04/10 01:01:06;;;;;;;;;2.67;0.00;;;;;23.71;40.05;102413.03;4939709;28;45555;-78
2024/04/10 01:03:33;;;;;;;;;1.00;1.00;;;;;23.44;39.98;102373.13;4940001;28;46393;-78
2024/04/10 01:06:03;;;;;;;;;1.00;1.00;;;;;23.84;39.86;102450.69;4940202;28;45528;-78
2024/04/10 01:08:29;;;;;;;;;0.00;0.00;;;;;23.84;39.90;102441.88;4940165;28;45388;-78
2024/04/10 01:10:57;;;;;;;;;0.00;0.00;;;;;23.81;39.77;102437.72;4939970;28;45401;-78
2024/04/10 01:13:24;;;;;;;;;2.00;0.00;;;;;23.67;39.57;102427.63;4940010;28;46196;-78
2024/04/10 01:15:50;;;;;;;;;0.00;0.00;;;;;23.81;39.64;102448.34;4939502;28;45392;-78
2024/04/10 01:18:15;;;;;;;;;0.00;0.00;;;;;23.78;39.81;102446.00;4940173;28;45268;-78
2024/04/10 01:20:40;;;;;;;;;0.00;0.00;;;;;23.80;39.69;102452.00;4940152;28;45258;-78
2024/04/10 01:23:06;;;;;;;;;0.00;0.00;;;;;23.73;39.98;102445.63;4939742;28;45223;-78
2024/04/10 01:25:32;;;;;;;;;2.00;1.00;;;;;23.73;39.53;102445.63;4939845;28;45309;-78
2024/04/10 01:27:57;;;;;;;;;0.00;0.00;;;;;23.82;40.12;102465.13;4940236;28;45212;-78
2024/04/10 01:30:23;;;;;;;;;1.00;0.00;;;;;23.66;39.70;102458.69;4939698;28;45277;-78
2024/04/10 01:32:49;;;;;;;;;1.67;0.00;;;;;23.69;39.90;102463.69;4939770;28;47163;-78
2024/04/10 01:35:15;;;;;;;;;2.00;0.00;;;;;23.62;39.80;102450.19;4939649;28;45269;-78
2024/04/10 01:37:40;;;;;;;;;0.00;0.00;;;;;23.77;39.53;102473.56;4940008;28;45323;-77
2024/04/10 01:40:06;;;;;;;;;0.00;0.00;;;;;23.79;39.65;102481.38;4939669;28;45434;-79
2024/04/10 01:42:32;;;;;;;;;0.00;0.00;;;;;23.65;39.48;102462.34;4939496;28;46380;-79
2024/04/10 01:44:58;;;;;;;;;0.00;0.00;;;;;23.81;39.43;102493.53;4939347;28;45415;-79
2024/04/10 01:47:23;;;;;;;;;0.00;0.00;;;;;23.81;39.67;102496.19;4939632;28;45451;-77
2024/04/10 01:49:50;;;;;;;;;0.00;0.00;;;;;23.79;39.39;102495.50;4939476;28;45382;-79
2024/04/10 01:52:15;;;;;;;;;0.67;0.67;;;;;23.82;39.72;102505.00;4922213;28;48288;-78
2024/04/10 01:54:40;;;;;;;;;0.00;0.00;;;;;23.62;39.35;102470.59;4939386;28;45328;-78
2024/04/10 01:57:06;;;;;;;;;1.33;0.33;;;;;23.82;39.13;102503.19;4938580;28;45381;-78
2024/04/10 01:59:31;;;;;;;;;0.00;0.00;;;;;23.82;39.42;102503.19;4921867;28;45575;-78
2024/04/10 02:01:57;;;;;;;;;1.00;0.00;;;;;23.70;39.70;102486.63;4921806;28;47179;-78
2024/04/10 02:04:22;;;;;;;;;1.67;0.00;;;;;23.78;39.58;102495.66;4939239;28;45386;-78
2024/04/10 02:06:47;;;;;;;;;0.00;0.00;;;;;23.82;39.76;102512.97;4939520;28;45400;-77
2024/04/10 02:09:13;;;;;;;;;0.33;0.00;;;;;23.81;40.21;102503.34;4939267;28;45506;-77
2024/04/10 02:11:40;;;;;;;;;0.00;0.00;;;;;23.80;39.69;102505.16;4939153;28;46066;-78
2024/04/10 02:14:06;;;;;;;;;1.33;1.33;;;;;23.66;39.70;102487.91;4938747;28;45339;-78
2024/04/10 02:16:32;;;;;;;;;0.00;0.00;;;;;23.71;39.52;102495.41;4939270;28;45467;-78
2024/04/10 02:18:57;;;;;;;;;0.00;0.00;;;;;23.70;39.33;102499.06;4939192;28;45256;-78
2024/04/10 02:21:23;;;;;;;;;0.00;0.00;;;;;23.78;39.74;102506.28;4939005;28;46055;-78
2024/04/10 02:23:49;;;;;;;;;1.00;0.00;;;;;23.66;39.82;102490.56;4937860;28;45483;-76
2024/04/10 02:26:15;;;;;;;;;0.00;0.00;;;;;23.77;39.50;102512.59;4938919;28;45375;-78
2024/04/10 02:28:41;;;;;;;;;0.00;0.00;;;;;23.77;39.63;102515.25;4938519;28;45391;-78
2024/04/10 02:31:07;;;;;;;;;0.33;0.33;;;;;23.77;39.65;102515.25;4938563;28;47418;-77
2024/04/10 02:33:34;;;;;;;;;0.00;0.00;;;;;23.62;39.50;102502.50;4938657;28;45288;-77
2024/04/10 02:35:59;;;;;;;;;2.33;0.00;;;;;23.76;39.34;102518.91;4938665;28;45245;-78
2024/04/10 02:38:27;;;;;;;;;0.00;0.00;;;;;23.77;39.58;102525.88;4938911;28;45229;-77
2024/04/10 02:40:53;;;;;;;;;0.00;0.00;;;;;23.50;39.43;102485.91;4938560;28;46502;-78
2024/04/10 02:43:20;;;;;;;;;1.00;1.00;;;;;23.73;39.45;102526.16;4938339;28;45420;-78
2024/04/10 02:46:00;;;;;;;;;0.00;0.00;;;;;23.76;39.72;102524.22;4938856;28;45439;-78
2024/04/10 02:48:26;;;;;;;;;2.00;0.00;;;;;23.68;39.38;102514.34;4937361;28;45308;-78
2024/04/10 02:50:52;;;;;;;;;2.00;0.00;;;;;23.67;39.49;102513.50;4938337;28;46220;-78
2024/04/10 02:53:18;;;;;;;;;2.00;2.00;;;;;23.63;39.56;102504.97;4938587;28;45478;-77
2024/04/10 02:55:47;;;;;;;;;0.67;0.67;;;;;23.74;39.43;102527.84;4938710;28;45369;-78
2024/04/10 02:58:13;;;;;;;;;0.00;0.00;;;;;23.70;39.29;102512.38;4938190;28;45357;-77
2024/04/10 03:00:47;;;;;;;;;2.00;0.00;;;;;23.70;39.76;102526.50;4938161;28;45624;-78
2024/04/10 03:03:12;;;;;;;;;0.00;0.00;;;;;23.73;39.20;102526.16;4938213;28;45301;-78
2024/04/10 03:05:45;;;;;;;;;0.00;0.00;;;;;23.70;39.03;102528.31;4938496;28;45229;-77
2024/04/10 03:08:11;;;;;;;;;0.67;0.00;;;;;23.60;39.43;102515.91;4938275;28;45464;-78
2024/04/10 03:10:37;;;;;;;;;0.00;0.00;;;;;23.73;39.28;102530.66;4938251;28;46042;-77
2024/04/10 03:13:03;;;;;;;;;0.00;0.00;;;;;23.65;39.28;102528.75;4952897;28;45397;-77
2024/04/10 03:15:29;;;;;;;;;0.00;0.00;;;;;23.61;39.24;102528.22;4938294;28;45494;-77
2024/04/10 03:17:54;;;;;;;;;1.00;0.33;;;;;23.70;39.19;102523.00;4938490;28;45241;-78
2024/04/10 03:20:20;;;;;;;;;1.00;0.00;;;;;23.68;39.42;102530.28;4938119;28;45523;-78
2024/04/10 03:22:46;;;;;;;;;2.00;0.00;;;;;23.73;38.92;102544.78;4937937;28;45390;-77
2024/04/10 03:25:12;;;;;;;;;0.00;0.00;;;;;23.73;39.27;102539.47;4938095;28;45346;-77
2024/04/10 03:27:37;;;;;;;;;0.00;0.00;;;;;23.57;38.88;102521.53;4937904;28;45418;-77
2024/04/10 03:30:03;;;;;;;;;0.00;0.00;;;;;23.73;38.84;102549.28;4937978;28;46252;-78
2024/04/10 03:32:30;;;;;;;;;1.33;0.67;;;;;23.71;38.94;102545.91;4938008;28;45425;-78
2024/04/10 03:34:55;;;;;;;;;0.67;0.00;;;;;23.61;39.36;102546.81;4937985;28;45357;-78
2024/04/10 03:37:21;;;;;;;;;0.00;0.00;;;;;23.45;39.26;102518.22;4938306;28;45324;-78
2024/04/10 03:39:46;;;;;;;;;0.33;0.33;;;;;23.59;39.08;102543.47;4937790;28;45958;-77
2024/04/10 03:42:12;;;;;;;;;1.00;0.00;;;;;23.72;39.15;102566.19;4937346;28;45292;-79
2024/04/10 03:44:38;;;;;;;;;0.00;0.00;;;;;23.46;39.33;102524.38;4938110;28;45169;-79
2024/04/10 03:47:04;;;;;;;;;2.00;0.33;;;;;23.66;39.05;102556.16;4937847;28;45282;-79
2024/04/10 03:49:29;;;;;;;;;0.67;0.67;;;;;23.69;39.45;102562.00;4937333;28;46009;-78
2024/04/10 03:51:55;;;;;;;;;1.00;1.00;;;;;23.70;39.10;102565.50;4920505;28;45221;-78
2024/04/10 03:54:20;;;;;;;;;0.00;0.00;;;;;23.71;39.29;102575.13;4937811;28;45704;-77
2024/04/10 03:56:45;;;;;;;;;2.00;0.00;;;;;23.58;39.22;102562.22;4937559;28;45294;-77
2024/04/10 03:59:11;;;;;;;;;1.67;0.00;;;;;23.66;39.75;102572.94;4937477;28;46990;-77
2024/04/10 04:01:36;;;;;;;;;0.00;0.00;;;;;23.68;39.09;102586.09;4932874;28;45419;-77
2024/04/10 04:04:05;;;;;;;;;0.33;0.33;;;;;23.69;39.53;102585.09;4918528;28;45544;-77
2024/04/10 04:06:30;;;;;;;;;0.00;0.00;;;;;23.57;39.26;102557.91;4918432;28;45431;-78
2024/04/10 04:08:56;;;;;;;;;2.00;0.67;;;;;23.69;39.47;102582.44;4918087;28;46274;-78
2024/04/10 04:11:22;;;;;;;;;0.00;0.00;;;;;23.61;39.37;102575.19;4918070;28;45613;-77
2024/04/10 04:13:47;;;;;;;;;2.00;0.00;;;;;23.69;39.35;102587.75;4918574;28;45909;-77
2024/04/10 04:16:13;;;;;;;;;0.00;0.00;;;;;23.68;39.13;102592.22;4918370;28;45454;-78
2024/04/10 04:18:38;;;;;;;;;0.67;0.67;;;;;23.61;39.00;102586.69;4918294;28;46171;-77
2024/04/10 04:21:04;;;;;;;;;0.00;0.00;;;;;23.61;39.25;102586.69;4921157;28;45345;-78
2024/04/10 04:23:29;;;;;;;;;0.00;0.00;;;;;23.67;39.49;102598.53;4921877;28;45356;-78
2024/04/10 04:25:55;;;;;;;;;0.00;0.00;;;;;23.67;39.29;102595.03;4921340;28;45224;-77
2024/04/10 04:28:21;;;;;;;;;0.00;0.00;;;;;23.63;39.53;102597.13;4921602;28;46904;-78
2024/04/10 04:30:47;;;;;;;;;1.33;0.00;;;;;23.67;39.27;102605.66;4921517;28;45378;-77
2024/04/10 04:33:13;;;;;;;;;2.00;1.00;;;;;23.66;39.39;102607.47;4921509;28;45335;-78
2024/04/10 04:35:39;;;;;;;;;0.00;0.00;;;;;23.60;39.39;102600.13;4921444;28;45475;-78
2024/04/10 04:38:05;;;;;;;;;1.67;0.33;;;;;23.67;38.76;102614.47;4921236;28;46518;-77
2024/04/10 04:40:31;;;;;;;;;0.33;0.33;;;;;23.63;39.41;102605.97;4920945;28;45400;-77
2024/04/10 04:43:02;;;;;;;;;0.67;0.00;;;;;23.57;39.27;102608.38;4921452;28;45241;-77
2024/04/10 04:45:27;;;;;;;;;0.67;0.00;;;;;23.67;39.25;102617.13;4921464;28;45499;-78
2024/04/10 04:47:53;;;;;;;;;0.00;0.00;;;;;23.67;39.05;102621.59;4919810;28;47454;-78
2024/04/10 04:50:18;;;;;;;;;0.00;0.00;;;;;23.59;39.03;102623.19;4921257;28;45483;-77
2024/04/10 04:52:44;;;;;;;;;1.00;0.00;;;;;23.56;38.54;102623.47;4921115;28;45447;-77
2024/04/10 04:55:09;;;;;;;;;1.00;0.00;;;;;23.68;39.03;102633.91;4921396;28;45295;-77
2024/04/10 04:57:35;;;;;;;;;0.00;0.00;;;;;23.68;38.77;102640.06;4921069;28;45304;-77
2024/04/10 05:00:11;;;;;;;;;1.33;1.00;;;;;23.68;38.60;102639.22;4922186;28;46174;-77
2024/04/10 05:02:37;;;;;;;;;2.33;0.00;;;;;23.68;38.92;102653.34;4940387;28;45211;-77
2024/04/10 05:05:03;;;;;;;;;0.00;0.00;;;;;23.68;39.15;102661.31;4940261;28;45165;-77
2024/04/10 05:07:28;;;;;;;;;1.00;1.00;;;;;23.54;39.08;102640.56;4939640;28;47143;-77
2024/04/10 05:09:55;;;;;;;;;3.67;0.67;;;;;23.61;39.04;102658.41;4940006;28;45446;-77
2024/04/10 05:12:21;;;;;;;;;1.00;1.00;;;;;23.66;39.16;102668.59;4940067;28;45507;-77
2024/04/10 05:14:53;;;;;;;;;1.00;1.00;;;;;23.66;39.11;102678.38;4933940;28;45376;-78
2024/04/10 05:17:19;;;;;;;;;0.33;0.33;;;;;23.55;39.05;102661.66;4931942;28;47900;-77
2024/04/10 05:19:44;;;;;;;;;2.00;0.33;;;;;23.62;39.21;102673.38;4933613;28;45335;-78
2024/04/10 05:22:10;;;;;;;;;0.00;0.00;;;;;23.62;39.08;102672.53;4936795;28;45407;-78
2024/04/10 05:24:35;;;;;;;;;0.00;0.00;;;;;23.40;38.81;102637.34;4939069;28;45488;-78
2024/04/10 05:27:05;;;;;;;;;0.00;0.00;;;;;23.60;39.29;102674.50;4939327;28;46210;-79
2024/04/10 05:29:30;;;;;;;;;0.00;0.00;;;;;23.58;39.23;102679.97;4939619;28;45396;-80
2024/04/10 05:31:55;;;;;;;;;0.67;0.00;;;;;23.37;39.60;102643.78;4938815;28;45364;-81
2024/04/10 05:34:21;;;;;;;;;0.00;0.00;;;;;23.67;39.49;102688.88;4939600;28;45206;-88
2024/04/10 05:36:46;;;;;;;;;0.00;0.00;;;;;23.70;39.79;102687.75;4939369;28;45594;-87
2024/04/10 05:39:25;;;;;;;;;0.00;0.00;;;;;23.72;39.20;102691.94;4939383;28;45299;-86
2024/04/10 05:41:51;;;;;;;;;1.33;0.00;;;;;23.57;39.61;102670.34;4939609;28;45464;-86
2024/04/10 05:44:17;;;;;;;;;0.00;0.00;;;;;23.79;39.56;102688.69;4939526;28;45304;-86
2024/04/10 05:46:43;;;;;;;;;0.67;0.00;;;;;23.82;39.51;102701.69;4939615;28;46460;-87
2024/04/10 05:49:10;;;;;;;;;2.00;0.00;;;;;23.86;39.54;102700.41;4939179;28;45260;-86
2024/04/10 05:51:36;;;;;;;;;1.00;0.00;;;;;23.90;39.51;102711.56;4939560;28;45295;-86
2024/04/10 05:54:02;;;;;;;;;2.00;0.67;;;;;23.88;39.50;102701.09;4939164;28;45295;-88
2024/04/10 05:56:28;;;;;;;;;0.00;0.00;;;;;23.89;39.50;102697.44;4938960;28;45502;-86
2024/04/10 05:58:53;;;;;;;;;1.00;1.00;;;;;24.05;39.43;102728.72;4939476;28;45255;-87
2024/04/10 06:01:19;;;;;;;;;1.00;1.00;;;;;23.68;39.47;102671.94;4939811;28;45240;-82
2024/04/10 06:03:45;;;;;;;;;1.00;0.00;;;;;24.12;39.14;102726.31;4939392;28;45541;-82
2024/04/10 06:06:16;;;;;;;;;0.00;0.00;;;;;23.92;39.21;102693.66;4939194;28;46057;-81
2024/04/10 06:08:42;;;;;;;;;1.00;0.00;;;;;24.23;38.78;102732.38;4939201;28;45441;-81
2024/04/10 06:11:08;;;;;;;;;2.00;0.00;;;;;24.21;38.32;102723.72;4939339;28;45535;-82
2024/04/10 06:13:33;;;;;;;;;0.33;0.33;;;;;24.10;38.99;102701.66;4939202;28;45359;-82
2024/04/10 06:16:04;;;;;;;;;1.00;1.00;;;;;23.94;38.61;102660.59;4939235;28;45340;-83
2024/04/10 06:18:29;;;;;;;;;0.33;0.33;;;;;24.51;38.50;102740.38;4939425;28;45304;-82
2024/04/10 06:21:01;;;;;;;;;1.00;1.00;;;;;24.59;38.29;102736.94;4938803;28;45296;-82
2024/04/10 06:23:31;;;;;;;;;0.33;0.00;;;;;24.60;38.50;102728.81;4939188;28;45554;-82
2024/04/10 06:25:57;;;;;;;;;1.67;0.00;;;;;24.73;38.36;102744.41;4939108;28;45356;-82
2024/04/10 06:28:24;;;;;;;;;0.00;0.00;;;;;24.83;38.32;102752.28;4939236;28;45419;-82
2024/04/10 06:31:01;;;;;;;;;0.00;0.00;;;;;24.88;38.10;102748.34;4939305;28;45284;-83
2024/04/10 06:33:27;;;;;;;;;1.00;0.00;;;;;24.83;38.05;102746.13;4939162;28;45451;-83
2024/04/10 06:35:53;;;;;;;;;1.00;1.00;;;;;24.79;38.22;102729.66;4938693;28;46378;-83
2024/04/10 06:38:18;;;;;;;;;0.33;0.00;;;;;24.93;37.99;102746.06;4938847;28;45427;-82
2024/04/10 06:40:53;;;;;;;;;0.00;0.00;;;;;25.07;38.10;102753.53;4939156;28;45359;-83
2024/04/10 06:43:18;;;;;;;;;0.00;0.00;;;;;25.20;37.68;102754.09;4938353;28;45362;-83
2024/04/10 06:46:02;;;;;;;;;0.33;0.00;;;;;25.12;37.71;102729.09;4938669;28;46791;-83
2024/04/10 06:48:29;;;;;;;;;2.33;0.33;;;;;25.44;37.48;102753.44;4938545;28;45412;-83
2024/04/10 06:51:05;;;;;;;;;0.33;0.33;;;;;25.56;37.71;102755.81;4938566;28;45367;-83
2024/04/10 06:53:31;;;;;;;;;0.00;0.00;;;;;25.62;37.41;102761.38;4939222;28;45438;-83
2024/04/10 06:56:02;;;;;;;;;0.67;0.33;;;;;25.66;37.25;102763.72;4938408;28;46126;-83
2024/04/10 06:58:29;;;;;;;;;0.33;0.33;;;;;25.54;37.09;102739.16;4938823;28;45393;-83
2024/04/10 07:00:56;;;;;;;;;0.00;0.00;;;;;25.64;37.10;102774.53;4938299;28;45315;-83
2024/04/10 07:03:22;;;;;;;;;2.00;0.00;;;;;25.61;37.49;102772.19;4934125;28;45504;-83
2024/04/10 07:05:48;;;;;;;;;0.67;0.67;;;;;25.48;37.52;102764.59;4937518;28;46243;-83
2024/04/10 07:08:14;;;;;;;;;2.00;0.33;;;;;25.54;37.37;102781.81;4938236;28;45407;-82
2024/04/10 07:10:39;;;;;;;;;0.00;0.00;;;;;25.48;37.76;102784.09;4938256;28;45249;-83
2024/04/10 07:13:05;;;;;;;;;2.33;0.00;;;;;25.46;37.39;102785.25;4937694;28;45343;-83
2024/04/10 07:15:32;;;;;;;;;1.00;0.00;;;;;25.21;37.44;102761.97;4937775;28;45478;-81
2024/04/10 07:17:57;;;;;;;;;0.67;0.00;;;;;25.39;37.67;102798.38;4938037;28;45578;-86
2024/04/10 07:20:22;;;;;;;;;0.00;0.00;;;;;25.27;36.46;102787.13;4938717;28;45386;-86
2024/04/10 07:22:48;;;;;;;;;1.67;1.00;;;;;25.25;35.81;102789.94;4938393;28;45343;-88
2024/04/10 07:25:13;;;;;;;;;2.33;0.33;;;;;25.12;35.90;102771.69;4938489;28;46279;-87
2024/04/10 07:27:39;;;;;;;;;2.33;0.33;;;;;25.09;35.68;102773.81;4938214;28;45423;-86
2024/04/10 07:30:05;;;;;;;;;2.00;0.00;;;;;24.97;36.28;102768.72;4938335;28;45387;-85
2024/04/10 07:32:30;;;;;;;;;2.33;1.00;;;;;25.02;35.88;102778.94;4938202;28;45606;-84
2024/04/10 07:34:56;;;;;;;;;1.00;1.00;;;;;24.84;35.50;102763.78;4938131;28;46067;-85
2024/04/10 07:37:21;;;;;;;;;1.00;1.00;;;;;24.89;35.72;102790.78;4937755;28;45328;-85
2024/04/10 07:39:46;;;;;;;;;2.33;1.00;;;;;24.95;35.33;102784.88;4938245;28;45426;-85
2024/04/10 07:42:12;;;;;;;;;5.33;1.33;;;;;24.95;35.10;102784.88;4920345;28;45633;-85
2024/04/10 07:44:38;;;;;;;;;2.00;0.67;;;;;25.03;35.20;102789.44;4938096;28;46022;-85
2024/04/10 07:47:05;;;;;;;;;3.33;0.00;;;;;24.65;35.27;102730.16;4920211;28;45460;-85
2024/04/10 07:49:30;;;;;;;;;0.67;0.67;;;;;24.59;35.02;102715.66;4937603;28;45299;-86
2024/04/10 07:51:56;;;;;;;;;4.00;1.00;;;;;25.05;34.69;102787.47;4937943;28;45398;-86
2024/04/10 07:54:21;;;;;;;;;4.33;1.00;;;;;24.73;34.46;102727.59;4919383;28;47246;-85
2024/04/10 07:56:47;;;;;;;;;2.33;1.67;;;;;24.79;34.32;102732.31;4938763;28;45351;-84
2024/04/10 07:59:12;;;;;;;;;2.00;0.33;;;;;24.98;34.15;102765.09;4938353;28;45351;-85
2024/04/10 08:01:37;;;;;;;;;1.00;1.00;;;;;25.10;34.33;102781.69;4937724;28;45434;-84
2024/04/10 08:04:06;;;;;;;;;1.67;1.33;;;;;25.12;34.14;102785.03;4937488;28;46028;-85
2024/04/10 08:06:36;;;;;;;;;2.00;1.33;;;;;24.79;34.22;102740.28;4937519;28;45388;-86
2024/04/10 08:09:02;;;;;;;;;2.67;2.00;;;;;24.90;33.88;102759.69;4937620;28;45486;-86
2024/04/10 08:11:27;;;;;;;;;4.67;1.67;;;;;24.99;33.63;102766.75;4937925;28;45338;-85
2024/04/10 08:13:52;;;;;;;;;4.00;2.00;;;;;25.07;33.39;102768.66;4937564;28;45399;-85
2024/04/10 08:16:18;;;;;;;;;0.67;0.00;;;;;25.03;33.48;102770.78;4937149;28;45499;-84
2024/04/10 08:18:43;;;;;;;;;6.00;1.00;;;;;24.87;33.92;102755.50;4937843;28;45531;-84
2024/04/10 08:21:11;;;;;;;;;3.00;1.33;;;;;24.87;33.57;102754.66;4937383;28;45386;-84
2024/04/10 08:23:38;;;;;;;;;1.67;0.33;;;;;25.16;33.49;102802.34;4937451;28;46517;-85
2024/04/10 08:26:12;;;;;;;;;1.00;1.00;;;;;25.16;33.42;102805.00;4937623;28;45229;-85
2024/04/10 08:28:45;;;;;;;;;2.00;0.33;;;;;25.09;33.53;102785.31;4952249;28;45352;-84
2024/04/10 08:31:13;;;;;;;;;1.00;0.00;;;;;25.14;33.55;102792.84;4937070;28;45561;-84
2024/04/10 08:33:39;;;;;;;;;2.67;1.00;;;;;25.15;33.23;102784.72;4937242;28;47023;-83
2024/04/10 08:36:06;;;;;;;;;0.00;0.00;;;;;24.92;33.39;102749.72;4951956;28;45770;-83
2024/04/10 08:38:32;;;;;;;;;1.00;1.00;;;;;25.20;33.15;102794.91;4937311;28;45541;-89
2024/04/10 08:40:58;;;;;;;;;1.33;1.33;;;;;25.08;32.70;102778.34;4920799;28;45542;-89
2024/04/10 08:43:26;;;;;;;;;2.00;1.33;;;;;25.23;33.18;102797.25;4937988;28;46089;-88
2024/04/10 08:45:51;;;;;;;;;4.67;1.00;;;;;25.19;33.30;102798.53;4936938;28;45296;-88
2024/04/10 08:48:18;;;;;;;;;2.00;2.00;;;;;25.08;32.28;102781.00;4919795;28;45320;-87
2024/04/10 08:50:45;;;;;;;;;3.33;1.00;;;;;25.16;32.17;102812.19;4938267;28;45386;-89
2024/04/10 08:53:12;;;;;;;;;2.00;1.00;;;;;25.13;32.59;102816.00;4937769;28;46382;-89
2024/04/10 08:55:40;;;;;;;;;3.33;0.33;;;;;24.78;32.53;102765.22;4937342;28;45397;-87
2024/04/10 08:58:06;;;;;;;;;1.33;1.00;;;;;24.88;32.39;102786.44;4920732;28;45428;-89
2024/04/10 09:00:31;;;;;;;;;0.67;0.67;;;;;25.11;32.12;102817.97;4938042;28;45406;-90
2024/04/10 09:02:58;;;;;;;;;0.67;0.67;;;;;24.69;32.19;102755.50;4920418;28;46893;-90
2024/04/10 09:05:27;;;;;;;;;2.33;0.67;;;;;25.06;32.56;102818.41;4938236;28;45252;-89
2024/04/10 09:07:59;;;;;;;;;3.33;0.00;;;;;24.89;32.27;102787.28;4941219;28;45447;-89
2024/04/10 09:10:24;;;;;;;;;0.33;0.33;;;;;24.81;32.37;102764.09;4924798;28;45277;-90
2024/04/10 09:12:49;;;;;;;;;2.00;0.00;;;;;24.93;32.51;102781.50;4940910;28;46844;-89
2024/04/10 09:15:18;;;;;;;;;0.67;0.00;;;;;25.14;32.24;102828.31;4940907;28;45342;-89
2024/04/10 09:17:44;;;;;;;;;0.67;0.00;;;;;24.87;32.46;102784.78;4941722;28;45421;-88
2024/04/10 09:20:13;;;;;;;;;3.33;1.00;;;;;25.13;32.34;102826.66;4955413;28;45739;-89
2024/04/10 09:22:38;;;;;;;;;2.67;0.67;;;;;24.93;32.24;102792.16;4940249;28;45337;-88
2024/04/10 09:25:13;;;;;;;;;2.00;1.00;;;;;25.09;32.71;102819.09;4922819;28;45655;-89
2024/04/10 09:27:39;;;;;;;;;1.00;1.00;;;;;25.19;32.33;102838.50;4924761;28;45255;-88
2024/04/10 09:30:06;;;;;;;;;3.00;0.67;;;;;25.03;32.72;102810.72;4939034;28;45218;-88
2024/04/10 09:32:33;;;;;;;;;1.33;1.00;;;;;24.89;32.52;102788.13;4940833;28;45511;-89
2024/04/10 09:35:01;;;;;;;;;0.67;0.33;;;;;25.10;33.12;102816.31;4940653;28;45436;-88
2024/04/10 09:37:30;;;;;;;;;0.00;0.00;;;;;25.26;32.67;102842.25;4940259;28;45443;-88
2024/04/10 09:39:55;;;;;;;;;2.00;0.00;;;;;25.22;32.72;102832.88;4940257;28;45328;-88
2024/04/10 09:42:27;;;;;;;;;0.67;0.67;;;;;25.01;33.19;102796.75;4939103;28;47411;-88
2024/04/10 09:45:05;;;;;;;;;0.00;0.00;;;;;25.03;32.17;102793.94;4954691;28;45845;-87
2024/04/10 09:47:32;;;;;;;;;1.33;0.00;;;;;25.34;32.40;102844.13;4939997;28;45410;-88
2024/04/10 09:49:59;;;;;;;;;1.67;0.67;;;;;25.23;32.66;102825.72;4939596;28;45360;-88
2024/04/10 09:52:27;;;;;;;;;1.00;0.00;;;;;25.33;32.58;102841.63;4939887;28;47170;-87
2024/04/10 09:54:56;;;;;;;;;0.00;0.00;;;;;25.32;33.09;102843.44;4939638;28;45275;-88
2024/04/10 09:57:23;;;;;;;;;1.33;0.00;;;;;25.32;32.77;102847.94;4940182;28;45445;-87
2024/04/10 09:59:49;;;;;;;;;0.00;0.00;;;;;25.32;33.43;102845.28;4939876;28;45411;-87
2024/04/10 10:02:19;;;;;;;;;1.00;1.00;;;;;25.28;33.18;102831.44;4940195;28;46096;-88
2024/04/10 10:04:44;;;;;;;;;2.67;0.00;;;;;25.28;33.49;102828.75;4922499;28;45324;-87
2024/04/10 10:07:10;;;;;;;;;0.00;0.00;;;;;25.23;33.94;102821.25;4937968;28;45414;-86
2024/04/10 10:09:36;;;;;;;;;1.00;0.00;;;;;25.32;33.88;102835.44;4940043;28;45367;-86
2024/04/10 10:12:02;;;;;;;;;0.00;0.00;;;;;25.29;33.90;102838.44;4939901;28;46187;-87
2024/04/10 10:14:30;;;;;;;;;0.33;0.33;;;;;25.01;33.58;102804.72;4954050;28;46038;-87
2024/04/10 10:17:09;;;;;;;;;0.67;0.67;;;;;25.18;33.35;102831.50;4938680;28;45306;-88
2024/04/10 10:19:35;;;;;;;;;0.00;0.00;;;;;25.24;33.35;102843.38;4940493;28;45299;-88
2024/04/10 10:22:01;;;;;;;;;0.33;0.00;;;;;25.07;33.57;102816.59;4938769;28;47022;-87
2024/04/10 10:24:29;;;;;;;;;2.00;0.00;;;;;25.24;33.42;102840.72;4939964;28;45371;-87
2024/04/10 10:27:02;;;;;;;;;1.00;0.00;;;;;25.20;33.02;102834.84;4939505;28;45385;-88
2024/04/10 10:29:29;;;;;;;;;0.00;0.00;;;;;25.00;34.18;102797.72;4950918;28;45407;-87
2024/04/10 10:32:05;;;;;;;;;1.00;0.00;;;;;25.14;34.22;102811.47;4952336;28;45319;-87
2024/04/10 10:34:30;;;;;;;;;2.33;1.00;;;;;25.24;34.54;102828.22;4943309;28;45442;-88
2024/04/10 10:37:02;;;;;;;;;0.00;0.00;;;;;24.94;34.39;102777.84;4940225;28;45356;-88
2024/04/10 10:39:28;;;;;;;;;0.00;0.00;;;;;24.84;34.24;102763.78;4954423;28;45343;-87
2024/04/10 10:42:03;;;;;;;;;0.00;0.00;;;;;25.00;34.12;102792.38;4939325;28;46119;-87
2024/04/10 10:44:29;;;;;;;;;1.00;1.00;;;;;25.06;33.52;102802.44;4938722;28;45384;-86
2024/04/10 10:46:57;;;;;;;;;0.00;0.00;;;;;25.17;33.60;102828.00;4939259;28;45371;-87
2024/04/10 10:49:26;;;;;;;;;0.00;0.00;;;;;25.17;33.93;102827.16;4939638;28;45240;-86
2024/04/10 10:51:57;;;;;;;;;0.00;0.00;;;;;25.09;33.79;102816.44;4938906;28;47048;-86
2024/04/10 10:54:23;;;;;;;;;1.33;1.00;;;;;25.10;34.22;102821.63;4938598;28;45355;-87
2024/04/10 10:56:48;;;;;;;;;0.67;0.00;;;;;25.11;34.60;102819.81;4938818;28;45390;-87
2024/04/10 10:59:14;;;;;;;;;0.00;0.00;;;;;25.09;34.29;102819.09;4938949;28;45458;-87
2024/04/10 11:01:40;;;;;;;;;1.00;0.00;;;;;25.00;34.41;102800.38;4938466;28;45372;-87
2024/04/10 11:04:16;;;;;;;;;3.00;0.00;;;;;25.04;34.25;102809.75;4938825;28;45285;-87
2024/04/10 11:06:42;;;;;;;;;2.00;0.67;;;;;25.09;33.95;102822.59;4939409;28;45458;-86
2024/04/10 11:09:10;;;;;;;;;0.00;0.00;;;;;25.09;34.11;102816.44;4938854;28;45438;-86
2024/04/10 11:11:37;;;;;;;;;0.00;0.00;;;;;25.04;33.99;102814.25;4938538;28;46982;-86
2024/04/10 11:14:02;;;;;;;;;0.00;0.00;;;;;25.07;34.00;102817.44;4938977;28;45309;-87
2024/04/10 11:16:31;;;;;;;;;1.33;1.00;;;;;24.93;33.70;102794.00;4938963;28;45497;-85
2024/04/10 11:18:57;;;;;;;;;0.00;0.00;;;;;25.05;33.95;102824.75;4939281;28;45324;-87
2024/04/10 11:21:22;;;;;;;;;1.67;0.00;;;;;25.04;33.94;102825.72;4938912;28;46171;-87